Nelson, Nebraska
Current Conditions -  °F | °C
As of 1:15 AM on Thursday 18 Dec 2014 (Local Time) from KHJH Reporting Station
Light Snow Light Snow  
Wind Chill: 26°   Ceiling: 700
Heat Index: 26°   Visibility: 1.2mi
Dew Point: 23°   Wind: 3mph
Humidity: 89%   Direction: 100°E
Pressure: 30.19"   Gusts: NA
Location:  40.2°N, 98.07°W
Report Text: KHJH 180715Z AUTO 10003KT 1 1/4SM -SN BKN007 OVC011 M04/M05 A3019 RMK AO2 T10361052
Loading
Personal Weather Stations






























Interactive Weather Map New forecast layout! Learn more

10-Day Weather Forecast

Advertisements
Track Severe Weather on mobile